createdAt,value
2022-11-25T00:05:14.582Z,971.81
2022-11-25T00:10:46.267Z,971.85
2022-11-25T00:16:17.844Z,971.73
2022-11-25T00:21:49.737Z,971.64
2022-11-25T00:27:26.598Z,971.56
2022-11-25T00:32:57.287Z,971.31
2022-11-25T00:38:29.264Z,971.57
2022-11-25T00:44:00.921Z,971.58
2022-11-25T00:49:32.449Z,971.56
2022-11-25T00:55:04.546Z,971.71
2022-11-25T01:00:36.203Z,971.83
2022-11-25T01:06:07.654Z,971.88
2022-11-25T01:11:39.938Z,972.08
2022-11-25T01:17:11.373Z,972.08
2022-11-25T01:22:43.291Z,971.88
2022-11-25T01:28:21.538Z,972.19
2022-11-25T01:33:53.014Z,971.77
2022-11-25T01:39:33.459Z,971.94
2022-11-25T01:44:56.112Z,972.08
2022-11-25T01:50:27.841Z,972.43
2022-11-25T01:55:59.905Z,972.66
2022-11-25T02:01:31.224Z,972.62
2022-11-25T02:07:03.065Z,973.04
2022-11-25T02:12:34.842Z,973.18
2022-11-25T02:18:06.377Z,973.31
2022-11-25T02:23:38.457Z,973.11
2022-11-25T02:29:16.541Z,972.88
2022-11-25T02:34:47.939Z,973.01
2022-11-25T02:40:20.249Z,972.81
2022-11-25T02:45:51.522Z,972.9
2022-11-25T02:51:23.033Z,973.06
2022-11-25T02:56:54.778Z,973.05
2022-11-25T03:02:26.886Z,972.97
2022-11-25T03:07:58.643Z,972.48
2022-11-25T03:13:29.985Z,972.48
2022-11-25T03:19:02.404Z,972.47
2022-11-25T03:24:34.467Z,972.41
2022-11-25T03:30:10.829Z,972.53
2022-11-25T03:35:41.618Z,972.42
2022-11-25T03:41:13.584Z,972.16
2022-11-25T03:46:44.886Z,971.71
2022-11-25T03:52:16.483Z,971.51
2022-11-25T03:57:48.606Z,971.86
2022-11-25T04:03:19.994Z,971.79
2022-11-25T04:08:51.926Z,971.74
2022-11-25T04:14:23.446Z,971.96
2022-11-25T04:19:55.151Z,972.24
2022-11-25T04:25:27.242Z,971.7
2022-11-25T04:31:03.212Z,972.21
2022-11-25T04:36:34.570Z,972.0
2022-11-25T04:42:06.550Z,972.11
2022-11-25T04:47:38.353Z,972.11
2022-11-25T04:53:09.917Z,972.16
2022-11-25T04:58:41.845Z,972.27
2022-11-25T05:04:13.233Z,972.34
2022-11-25T05:09:45.190Z,972.85
2022-11-25T05:15:16.536Z,972.66
2022-11-25T05:20:48.310Z,971.79
2022-11-25T05:26:20.285Z,972.32
2022-11-25T05:31:56.186Z,972.27
2022-11-25T05:37:27.945Z,972.51
2022-11-25T05:42:59.962Z,972.89
2022-11-25T05:48:31.269Z,973.48
2022-11-25T05:54:03.122Z,973.53
2022-11-25T05:59:35.237Z,973.31
2022-11-25T06:05:07.093Z,973.33
2022-11-25T06:10:38.654Z,973.34
2022-11-25T06:16:10.383Z,973.25
2022-11-25T06:21:41.651Z,973.25
2022-11-25T06:27:13.722Z,973.22
2022-11-25T06:32:52.114Z,972.99
2022-11-25T06:38:23.618Z,973.2
2022-11-25T06:43:55.025Z,972.98
2022-11-25T06:49:26.943Z,972.83
2022-11-25T06:54:58.498Z,973.17
2022-11-25T07:00:30.507Z,973.29
2022-11-25T07:06:01.803Z,973.73
2022-11-25T07:11:33.672Z,973.45
2022-11-25T07:17:12.943Z,973.4
2022-11-25T07:22:37.080Z,973.72
2022-11-25T07:28:08.825Z,974.13
2022-11-25T07:33:46.862Z,974.19
2022-11-25T07:39:18.607Z,974.81
2022-11-25T07:44:50.398Z,975.54
2022-11-25T07:50:21.987Z,975.61
2022-11-25T07:55:54.033Z,975.42
2022-11-25T08:01:25.600Z,975.44
2022-11-25T08:06:57.569Z,975.88
2022-11-25T08:12:29.071Z,976.07
2022-11-25T08:18:00.950Z,975.57
2022-11-25T08:23:32.736Z,976.32
2022-11-25T08:29:04.159Z,976.77
2022-11-25T08:34:41.111Z,977.1
2022-11-25T08:40:12.247Z,977.41
2022-11-25T08:45:43.671Z,977.9
2022-11-25T08:51:15.811Z,977.55
2022-11-25T08:56:47.122Z,977.31
2022-11-25T09:02:19.315Z,977.63
2022-11-25T09:07:50.773Z,978.17
2022-11-25T09:13:22.335Z,978.26
2022-11-25T09:18:57.343Z,978.42
2022-11-25T09:24:25.844Z,978.94
2022-11-25T09:29:57.511Z,979.14
2022-11-25T09:35:34.381Z,979.15
2022-11-25T09:41:05.414Z,979.41
2022-11-25T09:46:37.311Z,979.5
2022-11-25T09:52:08.826Z,979.2
2022-11-25T09:57:40.462Z,979.25
2022-11-25T10:03:12.429Z,979.81
2022-11-25T10:08:44.582Z,979.91
2022-11-25T10:14:15.843Z,979.81
2022-11-25T10:19:47.233Z,980.13
2022-11-25T10:25:19.218Z,979.85
2022-11-25T10:30:50.882Z,980.32
2022-11-25T10:36:27.149Z,979.96
2022-11-25T10:41:58.844Z,979.91
2022-11-25T10:47:30.498Z,979.97
2022-11-25T10:53:02.065Z,980.04
2022-11-25T10:58:34.090Z,979.97
2022-11-25T11:04:05.994Z,980.47
2022-11-25T11:09:37.319Z,980.73
2022-11-25T11:15:09.303Z,980.2
2022-11-25T11:20:40.761Z,979.68
2022-11-25T11:26:12.499Z,979.22
2022-11-25T11:31:44.464Z,979.81
2022-11-25T11:37:22.574Z,980.11
2022-11-25T11:42:54.246Z,979.02
2022-11-25T11:48:25.742Z,979.31
2022-11-25T11:53:58.227Z,979.66
2022-11-25T11:59:29.246Z,979.67
2022-11-25T12:05:01.167Z,980.36
2022-11-25T12:10:32.620Z,980.82
2022-11-25T12:16:04.962Z,980.87
2022-11-25T12:21:42.979Z,980.77
2022-11-25T12:27:07.667Z,980.6
2022-11-25T12:32:39.927Z,980.18
2022-11-25T12:38:17.522Z,980.96
2022-11-25T12:43:49.285Z,981.18
2022-11-25T12:49:20.951Z,981.0
2022-11-25T12:54:52.981Z,981.06
2022-11-25T13:00:44.116Z,981.3
2022-11-25T13:05:56.166Z,981.06
2022-11-25T13:11:28.684Z,980.89
2022-11-25T13:17:01.751Z,980.99
2022-11-25T13:22:31.705Z,980.84
2022-11-25T13:28:03.239Z,981.58
2022-11-25T13:33:35.354Z,981.72
2022-11-25T13:39:10.990Z,981.47
2022-11-25T13:44:42.736Z,981.7
2022-11-25T13:50:24.491Z,981.63
2022-11-25T13:55:46.171Z,981.61
2022-11-25T14:01:18.738Z,981.57
2022-11-25T14:06:50.061Z,981.6
2022-11-25T14:12:21.768Z,981.97
2022-11-25T14:17:52.990Z,982.31
2022-11-25T14:23:24.708Z,982.38
2022-11-25T14:28:56.469Z,982.48
2022-11-25T14:34:28.656Z,982.23
2022-11-25T14:40:05.238Z,982.62
2022-11-25T14:45:36.639Z,982.84
2022-11-25T14:51:07.796Z,982.76
2022-11-25T14:56:39.622Z,982.93
2022-11-25T15:02:11.800Z,982.8
2022-11-25T15:07:43.216Z,982.75
2022-11-25T15:13:15.750Z,982.45
2022-11-25T15:18:46.374Z,983.11
2022-11-25T15:24:18.462Z,982.97
2022-11-25T15:29:50.043Z,983.23
2022-11-25T15:35:22.195Z,983.17
2022-11-25T15:40:57.756Z,982.93
2022-11-25T15:46:30.047Z,982.93
2022-11-25T15:52:01.250Z,983.5
2022-11-25T15:57:33.174Z,983.33
2022-11-25T16:03:04.606Z,983.37
2022-11-25T16:08:36.560Z,983.16
2022-11-25T16:14:08.193Z,983.09
2022-11-25T16:19:40.733Z,983.3
2022-11-25T16:25:11.878Z,983.67
2022-11-25T16:30:43.602Z,983.86
2022-11-25T16:36:15.086Z,983.84
2022-11-25T16:41:53.947Z,984.03
2022-11-25T16:47:24.835Z,984.07
2022-11-25T16:52:56.586Z,983.97
2022-11-25T16:58:28.318Z,983.93
2022-11-25T17:03:59.999Z,983.77
2022-11-25T17:09:31.687Z,983.78
2022-11-25T17:15:03.947Z,983.69
2022-11-25T17:20:35.417Z,983.73
2022-11-25T17:26:06.858Z,983.84
2022-11-25T17:31:38.883Z,983.82
2022-11-25T17:37:10.460Z,983.87
2022-11-25T17:42:46.416Z,984.01
2022-11-25T17:48:18.202Z,984.07
2022-11-25T17:53:50.274Z,984.25
2022-11-25T17:59:21.761Z,984.24
2022-11-25T18:04:53.534Z,984.21
2022-11-25T18:10:25.118Z,984.14
2022-11-25T18:15:56.977Z,983.81
2022-11-25T18:21:28.850Z,983.94
2022-11-25T18:27:00.263Z,984.21
2022-11-25T18:32:32.406Z,984.24
2022-11-25T18:38:03.759Z,983.98
2022-11-25T18:43:41.907Z,984.03
2022-11-25T18:49:13.766Z,984.21
2022-11-25T18:54:45.473Z,984.3
2022-11-25T19:00:33.943Z,984.38
2022-11-25T19:05:48.971Z,984.12
2022-11-25T19:11:20.615Z,984.33
2022-11-25T19:16:52.989Z,984.06
2022-11-25T19:22:23.809Z,983.64
2022-11-25T19:27:55.526Z,983.99
2022-11-25T19:33:27.192Z,984.56
2022-11-25T19:38:59.767Z,984.84
2022-11-25T19:44:35.914Z,984.37
2022-11-25T19:50:07.036Z,984.14
2022-11-25T19:55:38.606Z,984.43
2022-11-25T20:01:10.396Z,984.18
2022-11-25T20:06:42.335Z,984.14
2022-11-25T20:12:14.458Z,984.47
2022-11-25T20:17:45.867Z,984.73
2022-11-25T20:23:17.449Z,985.0
2022-11-25T20:28:49.210Z,985.23
2022-11-25T20:34:20.898Z,985.1
2022-11-25T20:39:52.419Z,985.24
2022-11-25T20:45:29.272Z,984.98
2022-11-25T20:51:00.195Z,985.08
2022-11-25T20:56:32.004Z,985.02
2022-11-25T21:02:04.228Z,985.03
2022-11-25T21:07:35.991Z,984.92
2022-11-25T21:13:07.101Z,985.26
2022-11-25T21:18:38.869Z,985.32
2022-11-25T21:24:10.603Z,985.19
2022-11-25T21:29:42.302Z,985.24
2022-11-25T21:35:14.401Z,985.53
2022-11-25T21:40:45.911Z,985.42
2022-11-25T21:46:21.813Z,985.21
2022-11-25T21:51:53.862Z,985.6
2022-11-25T21:57:25.944Z,986.0
2022-11-25T22:02:57.025Z,986.07
2022-11-25T22:08:28.591Z,986.1
2022-11-25T22:14:00.277Z,985.96
2022-11-25T22:19:32.319Z,985.97
2022-11-25T22:25:03.878Z,986.36
2022-11-25T22:30:35.873Z,986.63
2022-11-25T22:36:07.482Z,986.85
2022-11-25T22:41:39.311Z,986.88
2022-11-25T22:47:15.322Z,986.99
2022-11-25T22:52:47.527Z,987.13
2022-11-25T22:58:18.922Z,987.31
2022-11-25T23:03:50.426Z,987.36
2022-11-25T23:09:22.026Z,987.48
2022-11-25T23:14:53.923Z,987.58
2022-11-25T23:20:25.914Z,987.49
2022-11-25T23:25:57.389Z,987.57
2022-11-25T23:31:29.090Z,987.46
2022-11-25T23:37:00.949Z,987.49
2022-11-25T23:42:32.661Z,987.44
2022-11-25T23:48:08.871Z,987.43
2022-11-25T23:53:40.323Z,987.15
2022-11-25T23:59:12.104Z,987.08
